Time;durP1;ratioP1;P1;durP2;ratioP2;P2;SDS_P1;SDS_P2;PMS_P1;PMS_P2;Temp;Humidity;BMP_temperature;BMP_pressure;BME280_temperature;BME280_humidity;BME280_pressure;Samples;Min_cycle;Max_cycle;Signal;HPM_P1;HPM_P2
2022/11/16 00:01:24;;;;;;;19.40;11.27;;;;;;;10.55;100.00;99843.53;5006884;28;20052;-82
2022/11/16 00:03:51;;;;;;;17.67;10.10;;;;;;;10.56;100.00;99842.63;5009167;28;20115;-82
2022/11/16 00:06:18;;;;;;;19.73;11.27;;;;;;;10.57;100.00;99836.53;5007650;28;20071;-82
2022/11/16 00:09:20;;;;;;;19.95;10.80;;;;;;;10.57;100.00;99834.78;5010459;28;20029;-82
2022/11/16 00:11:35;;;;;;;18.13;10.07;;;;;;;10.57;100.00;99839.13;5009012;28;20504;-82
2022/11/16 00:14:00;;;;;;;23.75;14.88;;;;;;;10.53;100.00;99825.44;5009782;28;20048;-82
2022/11/16 00:16:26;;;;;;;26.45;16.55;;;;;;;10.59;100.00;99839.88;5009245;28;20391;-82
2022/11/16 00:18:56;;;;;;;21.23;11.52;;;;;;;10.55;100.00;99827.97;5011472;28;20194;-81
2022/11/16 00:21:22;;;;;;;26.83;17.25;;;;;;;10.60;100.00;99844.16;5008180;28;20033;-81
2022/11/16 00:23:48;;;;;;;20.30;11.60;;;;;;;10.60;100.00;99841.56;5008322;28;20030;-82
2022/11/16 00:26:13;;;;;;;22.48;11.93;;;;;;;10.58;100.00;99836.44;5008235;28;20041;-81
2022/11/16 00:28:38;;;;;;;21.67;12.47;;;;;;;10.59;100.00;99851.09;5007094;28;20025;-81
2022/11/16 00:31:05;;;;;;;23.50;13.23;;;;;;;10.61;100.00;99848.44;5008389;28;20289;-81
2022/11/16 00:33:31;;;;;;;24.17;13.30;;;;;;;10.60;100.00;99852.78;5007363;28;20037;-79
2022/11/16 00:35:59;;;;;;;25.48;15.95;;;;;;;10.61;100.00;99849.31;4990336;28;20403;-79
2022/11/16 00:38:25;;;;;;;18.70;10.88;;;;;;;10.60;100.00;99844.16;5008105;28;20026;-80
2022/11/16 00:40:50;;;;;;;19.67;11.00;;;;;;;10.60;100.00;99837.25;4991390;28;20037;-80
2022/11/16 00:43:15;;;;;;;20.25;10.73;;;;;;;10.59;100.00;99840.72;5007595;28;20109;-79
2022/11/16 00:45:41;;;;;;;20.02;10.95;;;;;;;10.54;100.00;99834.06;5009974;28;20156;-80
2022/11/16 00:48:07;;;;;;;18.10;10.13;;;;;;;10.56;100.00;99847.81;5007997;28;20407;-79
2022/11/16 00:50:32;;;;;;;21.30;12.30;;;;;;;10.59;100.00;99858.88;5007752;28;20033;-79
2022/11/16 00:52:57;;;;;;;24.90;11.60;;;;;;;10.62;100.00;99848.41;5008551;28;20022;-79
2022/11/16 00:55:23;;;;;;;21.17;11.52;;;;;;;10.60;100.00;99839.00;5008375;28;20136;-79
2022/11/16 00:57:48;;;;;;;21.60;11.32;;;;;;;10.59;100.00;99835.56;5007403;28;20484;-79
2022/11/16 01:00:14;;;;;;;22.83;11.30;;;;;;;10.58;100.00;99830.44;5013554;28;20042;-78
2022/11/16 01:02:40;;;;;;;20.75;11.68;;;;;;;10.58;100.00;99818.31;5010726;28;20046;-79
2022/11/16 01:05:07;;;;;;;22.30;11.57;;;;;;;10.56;100.00;99814.97;5011312;28;20026;-78
2022/11/16 01:07:34;;;;;;;21.35;11.75;;;;;;;10.59;100.00;99816.56;5011020;28;20030;-78
2022/11/16 01:09:59;;;;;;;21.55;11.63;;;;;;;10.58;100.00;99818.31;5012148;28;20029;-78
2022/11/16 01:12:25;;;;;;;22.73;12.77;;;;;;;10.59;100.00;99808.78;5000920;28;20029;-79
2022/11/16 01:14:50;;;;;;;23.52;12.38;;;;;;;10.58;100.00;99810.53;5010359;28;20368;-78
2022/11/16 01:17:15;;;;;;;30.05;12.20;;;;;;;10.58;100.00;99812.28;5015904;28;20044;-78
2022/11/16 01:19:41;;;;;;;26.20;14.32;;;;;;;10.57;100.00;99811.47;5012868;28;20032;-78
2022/11/16 01:22:06;;;;;;;26.75;13.57;;;;;;;10.57;100.00;99815.81;5011816;28;20028;-78
2022/11/16 01:24:32;;;;;;;22.13;12.27;;;;;;;10.59;100.00;99821.75;5011255;28;20080;-78
2022/11/16 01:26:57;;;;;;;23.08;12.35;;;;;;;10.60;100.00;99826.88;5012754;28;20040;-78
2022/11/16 01:29:27;;;;;;;29.48;15.45;;;;;;;10.58;100.00;99817.47;5012016;28;20037;-78
2022/11/16 01:31:53;;;;;;;41.63;20.00;;;;;;;10.60;100.00;99810.47;5011430;28;20030;-78
2022/11/16 01:34:19;;;;;;;24.20;12.13;;;;;;;10.60;100.00;99800.13;5011835;28;20411;-78
2022/11/16 01:36:44;;;;;;;24.33;12.70;;;;;;;10.57;100.00;99802.84;4995213;28;20529;-78
2022/11/16 01:39:14;;;;;;;22.55;12.30;;;;;;;10.54;100.00;99790.84;4995137;28;20021;-78
2022/11/16 01:41:40;;;;;;;22.83;12.23;;;;;;;10.55;100.00;99807.25;5009837;28;20514;-78
2022/11/16 01:44:31;;;;;;;23.85;14.80;;;;;;;10.57;100.00;99798.50;5012485;28;20065;-78
2022/11/16 01:47:01;;;;;;;21.55;11.88;;;;;;;10.54;100.00;99796.03;5010579;28;20048;-78
2022/11/16 01:49:29;;;;;;;20.70;11.95;;;;;;;10.57;100.00;99789.91;5009195;28;20037;-78
2022/11/16 01:52:00;;;;;;;21.90;12.32;;;;;;;10.58;100.00;99787.22;5009699;28;20029;-78
2022/11/16 01:54:26;;;;;;;22.27;12.20;;;;;;;10.60;100.00;99792.34;5012166;28;20018;-78
2022/11/16 01:56:54;;;;;;;22.10;12.10;;;;;;;10.62;100.00;99787.94;5010890;28;20502;-79
2022/11/16 01:59:20;;;;;;;24.48;13.43;;;;;;;10.63;100.00;99787.06;5012122;28;20043;-78
2022/11/16 02:01:45;;;;;;;26.13;13.48;;;;;;;10.66;100.00;99787.75;5008483;28;20408;-78
2022/11/16 02:04:12;;;;;;;24.35;12.38;;;;;;;10.69;100.00;99791.97;4988128;28;20050;-78
2022/11/16 02:07:11;;;;;;;27.48;13.65;;;;;;;10.70;100.00;99783.31;4991242;28;20500;-78
2022/11/16 02:10:09;;;;;;;26.73;12.10;;;;;;;10.72;100.00;99778.88;4991445;28;20072;-78
2022/11/16 02:12:58;;;;;;;22.73;12.75;;;;;;;10.73;100.00;99783.16;4994955;28;20022;-78
2022/11/16 02:15:49;;;;;;;24.00;12.60;;;;;;;10.74;100.00;99774.47;4992171;28;20030;-78
2022/11/16 02:18:33;;;;;;;25.20;12.88;;;;;;;10.75;100.00;99780.50;4992116;28;20034;-78
2022/11/16 02:21:07;;;;;;;27.52;13.63;;;;;;;10.77;100.00;99768.34;4990958;28;20412;-78
2022/11/16 02:23:51;;;;;;;24.05;13.30;;;;;;;10.79;100.00;99772.53;4989523;28;20493;-78
2022/11/16 02:26:43;;;;;;;25.92;12.95;;;;;;;10.79;100.00;99767.34;4989587;28;20030;-78
2022/11/16 02:29:22;;;;;;;26.23;13.32;;;;;;;10.79;100.00;99769.09;4991650;28;20026;-78
2022/11/16 02:32:26;;;;;;;22.90;12.23;;;;;;;10.81;100.00;99770.72;4990750;28;20105;-78
2022/11/16 02:34:55;;;;;;;24.63;13.40;;;;;;;10.79;100.00;99764.75;4988814;28;20038;-79
2022/11/16 02:37:23;;;;;;;26.80;13.80;;;;;;;10.79;100.00;99769.09;4989703;28;20085;-78
2022/11/16 02:39:54;;;;;;;27.35;14.93;;;;;;;10.78;100.00;99768.25;4990233;28;20535;-78
2022/11/16 02:42:27;;;;;;;27.83;14.80;;;;;;;10.83;100.00;99770.66;4986495;28;20089;-78
2022/11/16 02:44:54;;;;;;;32.63;16.02;;;;;;;10.82;100.00;99774.16;4989920;28;20504;-78
2022/11/16 02:47:26;;;;;;;38.33;17.63;;;;;;;10.81;100.00;99769.88;4991176;28;20089;-78
2022/11/16 02:49:58;;;;;;;45.28;18.98;;;;;;;10.80;100.00;99771.63;4990469;28;20034;-78
2022/11/16 02:52:26;;;;;;;27.90;15.00;;;;;;;10.84;100.00;99782.72;4990066;28;20022;-78
2022/11/16 02:54:51;;;;;;;29.13;14.25;;;;;;;10.83;100.00;99771.53;4989624;28;20379;-78
2022/11/16 02:57:41;;;;;;;29.23;14.07;;;;;;;10.85;100.00;99781.84;4990089;28;20026;-78
2022/11/16 03:00:13;;;;;;;26.70;13.63;;;;;;;10.83;100.00;99781.88;4990609;28;20030;-78
2022/11/16 03:03:13;;;;;;;24.70;13.02;;;;;;;10.85;100.00;99782.66;4990749;28;20054;-78
2022/11/16 03:05:43;;;;;;;28.50;13.35;;;;;;;10.86;100.00;99784.34;4998180;28;20524;-79
2022/11/16 03:08:30;;;;;;;24.30;12.63;;;;;;;10.85;100.00;99784.44;5010447;28;20034;-79
2022/11/16 03:13:49;;;;;;;21.83;11.85;;;;;;;10.84;100.00;99787.91;5004800;28;20040;-78
2022/11/16 03:16:40;;;;;;;24.08;11.48;;;;;;;10.82;100.00;99780.19;5013373;28;20506;-78
2022/11/16 03:19:09;;;;;;;24.52;10.85;;;;;;;10.80;100.00;99781.16;5010751;28;20403;-79
2022/11/16 03:21:34;;;;;;;18.70;10.98;;;;;;;10.79;100.00;99779.47;5009380;28;20108;-78
2022/11/16 03:24:00;;;;;;;21.80;10.60;;;;;;;10.77;100.00;99791.66;4992533;28;20121;-78
2022/11/16 03:26:31;;;;;;;18.15;10.68;;;;;;;10.72;100.00;99784.06;5009040;28;20510;-78
2022/11/16 03:29:07;;;;;;;16.65;9.95;;;;;;;10.72;100.00;99775.44;5007654;28;20072;-78
2022/11/16 03:31:44;;;;;;;16.02;9.80;;;;;;;10.67;100.00;99770.47;5008193;28;20036;-78
2022/11/16 03:34:17;;;;;;;20.98;12.18;;;;;;;10.65;100.00;99783.47;5010395;28;20029;-78
2022/11/16 03:36:47;;;;;;;19.05;10.52;;;;;;;10.63;100.00;99792.22;5007610;28;20040;-78
2022/11/16 03:39:20;;;;;;;17.63;9.55;;;;;;;10.61;100.00;99791.44;5008595;28;20080;-78
2022/11/16 03:41:47;;;;;;;20.17;10.73;;;;;;;10.59;100.00;99793.25;5009407;28;20452;-78
2022/11/16 03:44:14;;;;;;;18.85;9.27;;;;;;;10.56;100.00;99789.06;4999188;28;20033;-78
2022/11/16 03:46:42;;;;;;;19.90;9.13;;;;;;;10.53;100.00;99793.50;5010037;28;20395;-78
2022/11/16 03:49:07;;;;;;;16.55;9.15;;;;;;;10.53;100.00;99803.84;5010068;28;20029;-78
2022/11/16 03:51:33;;;;;;;15.55;9.25;;;;;;;10.49;100.00;99799.72;5010127;28;20036;-78
2022/11/16 03:53:58;;;;;;;16.02;9.10;;;;;;;10.46;100.00;99799.81;5008444;28;20458;-78
2022/11/16 03:56:24;;;;;;;16.63;9.32;;;;;;;10.44;100.00;99801.66;5008477;28;20098;-78
2022/11/16 03:58:49;;;;;;;15.55;8.65;;;;;;;10.43;100.00;99808.59;5010362;28;20029;-78
2022/11/16 04:01:14;;;;;;;17.40;9.18;;;;;;;10.40;100.00;99819.06;5009084;28;20112;-78
2022/11/16 04:03:40;;;;;;;15.18;8.52;;;;;;;10.37;100.00;99826.97;5008182;28;20081;-78
2022/11/16 04:24:11;;;;;;;17.88;8.48;;;;;;;10.35;100.00;99836.53;5008052;28;20073;-78
2022/11/16 04:25:46;;;;;;;8.13;4.75;;;;;;;10.07;100.00;99834.13;5006332;28;20266;-78
2022/11/16 04:28:12;;;;;;;12.25;4.90;;;;;;;10.02;100.00;99838.63;5008963;28;20049;-78
2022/11/16 04:38:53;;;;;;;8.52;4.30;;;;;;;9.85;100.00;99828.88;5010266;28;20049;-78
2022/11/16 04:44:02;;;;;;;9.73;3.92;;;;;;;9.75;100.00;99834.47;5013361;28;20069;-78
2022/11/16 04:49:11;;;;;;;10.50;4.25;;;;;;;9.78;100.00;99852.47;5006173;28;20034;-78
2022/11/16 04:51:36;;;;;;;7.57;4.00;;;;;;;9.75;100.00;99852.59;4995649;28;20116;-78
2022/11/16 04:54:02;;;;;;;7.75;4.22;;;;;;;9.72;100.00;99848.34;5011883;28;20060;-78
2022/11/16 04:56:27;;;;;;;9.32;4.15;;;;;;;9.70;100.00;99857.91;5009476;28;20034;-78
2022/11/16 04:58:52;;;;;;;8.70;4.00;;;;;;;9.65;100.00;99864.16;5012180;28;20029;-78
2022/11/16 05:02:06;;;;;;;8.30;4.15;;;;;;;9.60;100.00;99853.97;5012002;28;20483;-78
2022/11/16 05:04:03;;;;;;;8.13;4.05;;;;;;;9.58;100.00;99863.53;5010576;28;20099;-78
2022/11/16 05:06:28;;;;;;;8.05;4.10;;;;;;;9.54;100.00;99863.69;5012364;28;20030;-78
2022/11/16 05:08:53;;;;;;;7.93;4.33;;;;;;;9.49;100.00;99867.28;5011147;28;20022;-78
2022/11/16 05:11:19;;;;;;;10.73;4.20;;;;;;;9.47;100.00;99878.59;5009510;28;20419;-78
2022/11/16 05:13:44;;;;;;;8.13;4.30;;;;;;;9.42;100.00;99873.56;4995248;28;20414;-78
2022/11/16 05:16:09;;;;;;;8.15;4.10;;;;;;;9.36;100.00;99878.94;4994257;28;20029;-78
2022/11/16 05:18:35;;;;;;;7.82;4.13;;;;;;;9.36;100.00;99884.13;5011339;28;20050;-78
2022/11/16 05:21:00;;;;;;;9.15;4.63;;;;;;;9.36;100.00;99886.69;5012174;28;20056;-78
2022/11/16 05:26:09;;;;;;;10.55;4.65;;;;;;;9.39;100.00;99883.19;5012404;28;20173;-78
2022/11/16 05:28:34;;;;;;;11.65;4.65;;;;;;;9.38;100.00;99879.75;4995191;28;20112;-78
2022/11/16 05:30:59;;;;;;;10.82;5.10;;;;;;;9.38;100.00;99876.31;5010659;28;20022;-78
2022/11/16 05:33:25;;;;;;;10.40;4.85;;;;;;;9.35;100.00;99882.41;5011947;28;20057;-78
2022/11/16 05:35:50;;;;;;;11.88;5.10;;;;;;;9.31;100.00;99880.84;5009191;28;20030;-78
2022/11/16 05:38:17;;;;;;;9.50;4.70;;;;;;;9.21;100.00;99876.88;5011606;28;20400;-78
2022/11/16 05:40:42;;;;;;;13.10;4.70;;;;;;;9.21;100.00;99881.22;5010138;28;20105;-78
2022/11/16 05:43:08;;;;;;;10.32;4.68;;;;;;;9.18;100.00;99881.31;5012270;28;20096;-77
2022/11/16 05:45:33;;;;;;;10.18;4.95;;;;;;;9.11;100.00;99883.25;5011300;28;20030;-77
2022/11/16 05:47:58;;;;;;;10.85;4.80;;;;;;;9.04;100.00;99880.03;5007364;28;20108;-77
2022/11/16 05:50:24;;;;;;;12.30;4.80;;;;;;;8.99;100.00;99874.19;4992735;28;20057;-78
2022/11/16 05:52:49;;;;;;;11.93;4.38;;;;;;;8.91;100.00;99883.06;5011191;28;20033;-77
2022/11/16 05:55:14;;;;;;;10.13;4.60;;;;;;;8.84;100.00;99866.06;5011008;28;20452;-78
2022/11/16 05:57:40;;;;;;;9.55;4.05;;;;;;;8.76;100.00;99870.63;5010514;28;20449;-77
2022/11/16 06:00:06;;;;;;;8.95;4.10;;;;;;;8.67;100.00;99872.59;5011075;28;20030;-78
2022/11/16 06:02:32;;;;;;;9.65;4.05;;;;;;;8.58;100.00;99888.41;5010589;28;20053;-77
2022/11/16 06:04:57;;;;;;;10.38;4.28;;;;;;;8.48;100.00;99883.56;5011440;28;20038;-78
2022/11/16 06:07:22;;;;;;;8.95;4.22;;;;;;;8.38;100.00;99882.16;5011373;28;20033;-78
2022/11/16 06:09:48;;;;;;;8.35;4.13;;;;;;;8.30;100.00;99888.41;5011732;28;20057;-78
2022/11/16 06:12:13;;;;;;;8.38;4.10;;;;;;;8.24;100.00;99898.03;4995428;28;20022;-78
2022/11/16 06:14:38;;;;;;;11.77;4.20;;;;;;;8.14;100.00;99894.00;5011166;28;20022;-78
2022/11/16 06:17:03;;;;;;;7.53;3.90;;;;;;;8.11;100.00;99909.59;5009042;28;20025;-78
2022/11/16 06:19:29;;;;;;;10.45;4.05;;;;;;;8.03;100.00;99906.38;5004573;28;20229;-78
2022/11/16 06:21:55;;;;;;;9.18;4.53;;;;;;;7.93;100.00;99906.63;5012701;28;20029;-78
2022/11/16 06:24:20;;;;;;;9.52;4.03;;;;;;;7.88;100.00;99911.09;4993134;28;20543;-78
2022/11/16 06:26:46;;;;;;;7.90;3.60;;;;;;;7.80;100.00;99901.84;5008352;28;20025;-78
2022/11/16 06:29:11;;;;;;;8.30;4.13;;;;;;;7.72;100.00;99909.81;5011427;28;20052;-78
2022/11/16 06:31:36;;;;;;;7.25;3.90;;;;;;;7.66;100.00;99914.28;5008328;28;20030;-78
2022/11/16 06:34:02;;;;;;;7.60;3.85;;;;;;;7.58;100.00;99921.38;5010054;28;20033;-78
2022/11/16 06:36:27;;;;;;;12.30;4.45;;;;;;;7.50;100.00;99924.19;5009660;28;20065;-78
2022/11/16 06:38:53;;;;;;;8.20;4.50;;;;;;;7.45;100.00;99931.16;5009874;28;20060;-78
2022/11/16 06:41:18;;;;;;;9.52;4.85;;;;;;;7.42;100.00;99929.53;5008979;28;20042;-78
2022/11/16 06:43:44;;;;;;;10.15;4.70;;;;;;;7.39;100.00;99932.16;5009589;28;20049;-78
2022/11/16 06:46:09;;;;;;;11.82;5.40;;;;;;;7.41;100.00;99929.56;5008157;28;20038;-78
2022/11/16 06:48:35;;;;;;;14.77;5.72;;;;;;;7.42;100.00;99939.84;5011177;28;20404;-77
2022/11/16 06:51:00;;;;;;;14.20;5.60;;;;;;;7.41;100.00;99940.72;4991474;28;20030;-78
2022/11/16 06:53:25;;;;;;;13.57;5.57;;;;;;;7.39;100.00;99939.06;5010310;28;20107;-78
2022/11/16 06:55:51;;;;;;;13.40;5.22;;;;;;;7.39;100.00;99939.91;5010632;28;20096;-78
2022/11/16 06:58:16;;;;;;;17.65;5.57;;;;;;;7.41;100.00;99942.44;5010890;28;20026;-78
2022/11/16 07:00:42;;;;;;;11.48;5.10;;;;;;;7.37;100.00;99949.41;5008288;28;20124;-78
2022/11/16 07:03:07;;;;;;;14.25;5.10;;;;;;;7.39;100.00;99949.38;5010901;28;20068;-78
2022/11/16 07:05:33;;;;;;;12.88;5.78;;;;;;;7.37;100.00;99951.97;5008230;28;20092;-79
2022/11/16 07:07:58;;;;;;;13.30;5.72;;;;;;;7.36;100.00;99946.88;4990970;28;20017;-78
2022/11/16 07:10:24;;;;;;;15.00;5.82;;;;;;;7.37;100.00;99948.56;5009285;28;20065;-78
2022/11/16 07:12:50;;;;;;;12.45;5.53;;;;;;;7.37;100.00;99958.88;5009620;28;20477;-78
2022/11/16 07:15:15;;;;;;;12.88;5.18;;;;;;;7.33;100.00;99958.09;4993242;28;20194;-78
2022/11/16 07:17:41;;;;;;;15.30;5.88;;;;;;;7.28;100.00;99953.94;5009975;28;20029;-78
2022/11/16 07:20:07;;;;;;;14.20;5.63;;;;;;;7.26;100.00;99958.28;5010492;28;20193;-78
2022/11/16 07:22:33;;;;;;;15.68;5.47;;;;;;;7.20;100.00;99959.28;5009728;28;20049;-78
2022/11/16 07:24:58;;;;;;;13.82;5.40;;;;;;;7.14;100.00;99957.72;5009338;28;20034;-78
2022/11/16 07:27:23;;;;;;;11.93;5.88;;;;;;;7.14;100.00;99956.88;5009517;28;20032;-78
2022/11/16 07:29:49;;;;;;;13.48;5.65;;;;;;;7.16;100.00;99965.41;5010096;28;20028;-78
2022/11/16 07:32:14;;;;;;;13.65;5.63;;;;;;;7.17;100.00;99967.06;5009016;28;20022;-78
2022/11/16 07:34:39;;;;;;;14.38;5.45;;;;;;;7.19;100.00;99973.06;5009654;28;20026;-78
2022/11/16 07:37:05;;;;;;;16.23;6.95;;;;;;;7.19;100.00;99978.19;5006363;28;20025;-78
2022/11/16 07:39:30;;;;;;;18.77;6.90;;;;;;;7.20;100.00;99972.16;5009870;28;20546;-78
2022/11/16 07:41:55;;;;;;;17.05;7.18;;;;;;;7.22;100.00;99974.72;5009509;28;20286;-78
2022/11/16 07:44:21;;;;;;;16.92;6.82;;;;;;;7.23;100.00;99976.41;5008154;28;20038;-78
2022/11/16 07:46:46;;;;;;;17.83;6.93;;;;;;;7.26;100.00;99987.50;5008961;28;20037;-87
2022/11/16 07:49:16;;;;;;;19.58;7.20;;;;;;;7.31;100.00;99990.78;5014529;28;20433;-87
2022/11/16 07:51:42;;;;;;;19.70;7.13;;;;;;;7.35;100.00;99989.84;5021397;28;20029;-86
2022/11/16 07:54:13;;;;;;;20.48;7.85;;;;;;;7.37;100.00;99993.22;5006506;28;20048;-87
2022/11/16 07:56:39;;;;;;;22.15;7.68;;;;;;;7.43;100.00;99997.41;4991104;28;20038;-87
2022/11/16 07:59:05;;;;;;;17.65;7.38;;;;;;;7.46;100.00;99995.59;5009032;28;20650;-87
2022/11/16 08:01:31;;;;;;;21.25;7.82;;;;;;;7.45;100.00;100000.78;5008263;28;20480;-88
2022/11/16 08:03:57;;;;;;;21.90;7.30;;;;;;;7.51;100.00;100000.63;5006640;28;20045;-88
2022/11/16 08:06:25;;;;;;;19.90;7.78;;;;;;;7.50;100.00;99999.78;4992672;28;20030;-87
2022/11/16 08:08:50;;;;;;;25.92;7.97;;;;;;;7.54;100.00;100003.97;4992652;28;20032;-88
2022/11/16 08:11:16;;;;;;;21.98;7.53;;;;;;;7.55;100.00;100004.84;5006654;28;20029;-87
2022/11/16 08:13:41;;;;;;;15.45;6.93;;;;;;;7.58;100.00;99998.72;5009433;28;20040;-88
2022/11/16 08:16:10;;;;;;;22.98;7.03;;;;;;;7.62;100.00;100002.94;5009030;28;20032;-87
2022/11/16 08:18:37;;;;;;;23.20;7.65;;;;;;;7.66;100.00;100014.88;5008051;28;20073;-88
2022/11/16 08:21:03;;;;;;;20.80;7.03;;;;;;;7.65;100.00;100000.28;5007627;28;20041;-87
2022/11/16 08:23:30;;;;;;;24.35;7.20;;;;;;;7.66;100.00;100023.44;5006088;28;20022;-87
2022/11/16 08:26:00;;;;;;;18.38;6.65;;;;;;;7.66;100.00;100013.13;5007620;28;20060;-88
2022/11/16 08:28:26;;;;;;;20.70;6.53;;;;;;;7.68;100.00;100019.13;5007461;28;20123;-87
2022/11/16 08:30:52;;;;;;;17.88;6.32;;;;;;;7.70;100.00;100012.19;5009091;28;20088;-86
2022/11/16 08:33:19;;;;;;;17.63;5.93;;;;;;;7.71;100.00;100016.44;5007277;28;20319;-87
2022/11/16 08:35:45;;;;;;;23.77;6.10;;;;;;;7.73;100.00;100006.94;5007494;28;20044;-88
2022/11/16 08:38:10;;;;;;;18.20;5.47;;;;;;;7.75;100.00;100012.06;5007523;28;20026;-88
2022/11/16 08:40:36;;;;;;;19.48;5.32;;;;;;;7.79;100.00;100019.69;5006710;28;20079;-87
2022/11/16 08:43:01;;;;;;;18.98;5.07;;;;;;;7.78;100.00;100005.06;5011844;28;20029;-87
2022/11/16 08:45:27;;;;;;;14.38;5.03;;;;;;;7.81;100.00;100005.00;5009319;28;20025;-87
2022/11/16 08:47:52;;;;;;;17.17;4.88;;;;;;;7.85;100.00;100013.50;5005515;28;20044;-88
2022/11/16 08:50:18;;;;;;;12.55;4.80;;;;;;;7.85;100.00;100016.94;5006146;28;20029;-87
2022/11/16 08:52:43;;;;;;;16.98;4.68;;;;;;;7.86;100.00;100018.63;5005162;28;20057;-87
2022/11/16 08:55:09;;;;;;;18.23;4.63;;;;;;;7.88;100.00;100026.34;4993005;28;20026;-87
2022/11/16 08:57:34;;;;;;;11.68;4.40;;;;;;;7.91;100.00;100029.66;5006511;28;20161;-86
2022/11/16 09:00:00;;;;;;;15.77;4.60;;;;;;;7.96;100.00;100027.00;5007548;28;20029;-87
2022/11/16 09:02:25;;;;;;;16.63;4.25;;;;;;;7.98;100.00;100027.81;5008103;28;20516;-87
2022/11/16 09:04:51;;;;;;;17.60;4.43;;;;;;;8.00;100.00;100038.06;5008082;28;20045;-87
2022/11/16 09:07:17;;;;;;;19.38;4.35;;;;;;;8.00;100.00;100038.06;5006856;28;20057;-88
2022/11/16 09:09:43;;;;;;;15.65;4.53;;;;;;;8.02;100.00;100041.47;4990909;28;20046;-87
2022/11/16 09:12:08;;;;;;;18.75;4.72;;;;;;;8.03;100.00;100033.69;5007895;28;20104;-87
2022/11/16 09:14:33;;;;;;;13.68;4.60;;;;;;;8.07;100.00;100037.03;5008542;28;20030;-87
2022/11/16 09:16:59;;;;;;;16.92;4.40;;;;;;;8.06;100.00;100033.59;5007935;28;20399;-87
2022/11/16 09:19:24;;;;;;;12.02;3.78;;;;;;;8.05;100.00;100033.66;5008304;28;20084;-88
2022/11/16 09:21:49;;;;;;;16.63;4.22;;;;;;;8.09;100.00;100038.69;5005977;28;20029;-87
2022/11/16 09:24:15;;;;;;;16.33;4.40;;;;;;;8.10;100.00;100039.53;5011121;28;20034;-87
2022/11/16 09:26:40;;;;;;;14.45;4.40;;;;;;;8.09;100.00;100033.53;5005290;28;20022;-87
2022/11/16 09:29:05;;;;;;;14.23;3.88;;;;;;;8.12;100.00;100037.78;5000055;28;20025;-87
2022/11/16 09:31:33;;;;;;;17.15;4.22;;;;;;;8.13;100.00;100035.13;4993817;28;20469;-88
2022/11/16 09:33:59;;;;;;;14.98;4.30;;;;;;;8.15;100.00;100042.84;5012393;28;20030;-87
2022/11/16 09:36:26;;;;;;;16.67;4.13;;;;;;;8.15;100.00;100042.84;5009718;28;20048;-88
2022/11/16 09:38:53;;;;;;;15.70;4.13;;;;;;;8.17;100.00;100034.19;5012210;28;20029;-87
2022/11/16 09:41:39;;;;;;;21.45;4.57;;;;;;;8.18;100.00;100035.03;5010923;28;20037;-87
2022/11/16 09:44:21;;;;;;;18.42;4.00;;;;;;;8.21;100.00;100034.91;4994606;28;20060;-87
2022/11/16 09:46:54;;;;;;;16.30;3.90;;;;;;;8.23;100.00;100035.75;5012277;28;20100;-87
2022/11/16 09:49:24;;;;;;;15.10;4.03;;;;;;;8.25;100.00;100041.72;5009721;28;20036;-87
2022/11/16 09:51:54;;;;;;;13.07;4.07;;;;;;;8.29;100.00;100041.59;5010364;28;20037;-87
2022/11/16 09:54:23;;;;;;;13.45;4.30;;;;;;;8.29;100.00;100051.91;5010226;28;20032;-87
2022/11/16 09:56:52;;;;;;;13.07;3.72;;;;;;;8.32;100.00;100049.25;5010179;28;20029;-87
2022/11/16 09:59:42;;;;;;;17.42;4.32;;;;;;;8.34;100.00;100049.22;5012975;28;20559;-87
2022/11/16 10:02:25;;;;;;;12.73;3.85;;;;;;;8.38;100.00;100048.28;5010186;28;20032;-86
2022/11/16 10:05:09;;;;;;;15.57;4.30;;;;;;;8.41;100.00;100047.31;5010000;28;20082;-87
2022/11/16 10:07:45;;;;;;;13.63;3.88;;;;;;;8.47;100.00;100052.31;5011641;28;20029;-87
2022/11/16 10:10:13;;;;;;;15.80;3.92;;;;;;;8.49;100.00;100048.81;5006140;28;20040;-87
2022/11/16 10:13:04;;;;;;;15.95;4.28;;;;;;;8.51;100.00;100048.78;5010361;28;20026;-87
2022/11/16 10:15:35;;;;;;;8.50;3.45;;;;;;;8.55;100.00;100053.78;5003162;28;20635;-87
2022/11/16 10:18:06;;;;;;;10.45;3.83;;;;;;;8.60;100.00;100061.41;5010964;28;20590;-87
2022/11/16 10:20:59;;;;;;;13.48;3.78;;;;;;;8.59;100.00;100047.66;5008779;28;20044;-87
2022/11/16 10:23:40;;;;;;;9.00;3.65;;;;;;;8.60;100.00;100045.91;5010027;28;20116;-87
2022/11/16 10:26:26;;;;;;;16.13;3.45;;;;;;;8.59;100.00;100046.81;5014039;28;20033;-87
2022/11/16 10:29:32;;;;;;;13.23;3.70;;;;;;;8.59;100.00;100044.25;4994656;28;20075;-87
2022/11/16 10:32:19;;;;;;;19.08;3.58;;;;;;;8.59;100.00;100044.25;4981817;28;20026;-87
2022/11/16 10:34:51;;;;;;;12.60;3.40;;;;;;;8.61;100.00;100042.44;5000363;28;20038;-87
2022/11/16 10:37:17;;;;;;;16.02;3.53;;;;;;;8.64;100.00;100044.94;5003153;28;20026;-87
2022/11/16 10:39:42;;;;;;;11.43;3.50;;;;;;;8.68;100.00;100036.22;5007075;28;20042;-86
2022/11/16 10:42:17;;;;;;;15.15;3.20;;;;;;;8.71;100.00;100044.72;5006456;28;20029;-86
2022/11/16 10:44:56;;;;;;;16.13;3.33;;;;;;;8.70;100.00;100037.88;5009999;28;20037;-86
2022/11/16 10:47:41;;;;;;;16.42;4.15;;;;;;;8.75;100.00;100034.28;5005726;28;20044;-87
2022/11/16 10:50:46;;;;;;;9.57;2.83;;;;;;;8.81;100.00;100036.69;5010517;28;20491;-86
2022/11/16 10:53:14;;;;;;;14.45;3.17;;;;;;;8.82;100.00;100038.38;5003437;28;20033;-86
2022/11/16 10:55:39;;;;;;;13.38;3.25;;;;;;;8.81;100.00;100037.53;5006788;28;20472;-85
2022/11/16 10:58:05;;;;;;;10.05;3.35;;;;;;;8.85;100.00;100031.41;5009524;28;20033;-85
2022/11/16 11:00:51;;;;;;;14.30;3.58;;;;;;;8.88;100.00;100028.72;4992495;28;20171;-87
2022/11/16 11:03:29;;;;;;;10.40;2.85;;;;;;;8.93;100.00;100038.94;5002551;28;20133;-86
2022/11/16 11:05:55;;;;;;;14.98;3.47;;;;;;;8.98;100.00;100045.66;4994301;28;20285;-86
2022/11/16 11:08:32;;;;;;;14.68;3.30;;;;;;;9.03;100.00;100036.00;5009004;28;20033;-86
2022/11/16 11:14:12;;;;;;;8.38;3.08;;;;;;;9.11;100.00;100034.06;5010620;28;20127;-86
2022/11/16 11:16:40;;;;;;;11.68;3.15;;;;;;;9.17;100.00;100027.84;5004228;28;20026;-86
2022/11/16 11:19:24;;;;;;;15.55;3.38;;;;;;;9.36;100.00;100030.69;5007641;28;20033;-85
2022/11/16 11:21:55;;;;;;;12.75;3.15;;;;;;;9.63;100.00;100031.53;5010225;28;20061;-86
2022/11/16 11:24:20;;;;;;;13.60;3.15;;;;;;;9.75;100.00;100021.66;5013219;28;20153;-85
2022/11/16 11:26:52;;;;;;;15.65;3.67;;;;;;;9.71;100.00;100014.03;5013365;28;20045;-85
2022/11/16 11:29:18;;;;;;;11.02;2.75;;;;;;;9.72;100.00;100026.91;5006469;28;20022;-85
2022/11/16 11:31:48;;;;;;;8.82;2.33;;;;;;;9.68;100.00;100020.16;5009704;28;20079;-85
2022/11/16 11:34:21;;;;;;;7.13;2.35;;;;;;;9.60;100.00;100016.13;5005142;28;20080;-85
2022/11/16 11:36:54;;;;;;;10.15;2.38;;;;;;;9.51;100.00;100012.09;5009904;28;20034;-85
2022/11/16 11:39:19;;;;;;;10.63;2.70;;;;;;;9.56;100.00;100006.75;4989923;28;20511;-85
2022/11/16 11:42:00;;;;;;;11.23;2.77;;;;;;;9.62;100.00;100010.00;5009489;28;20028;-85
2022/11/16 11:44:56;;;;;;;8.73;2.17;;;;;;;9.71;100.00;100008.84;5008013;28;20790;-86
2022/11/16 11:47:27;;;;;;;8.55;2.28;;;;;;;9.80;100.00;100008.53;5000581;28;20098;-85
2022/11/16 11:50:37;;;;;;;10.95;2.50;;;;;;;9.89;100.00;100005.66;5008751;28;20121;-85
2022/11/16 11:53:17;;;;;;;11.95;2.70;;;;;;;9.95;100.00;100004.59;4946164;28;20053;-85
2022/11/16 11:55:43;;;;;;;12.63;2.42;;;;;;;10.02;100.00;100003.47;5008720;28;20033;-85
2022/11/16 11:58:17;;;;;;;9.50;2.90;;;;;;;10.08;100.00;100003.25;5009362;28;20025;-85
2022/11/16 12:01:13;;;;;;;11.02;2.90;;;;;;;10.19;100.00;100003.75;5007824;28;20025;-84
2022/11/16 12:04:20;;;;;;;11.73;2.78;;;;;;;10.28;100.00;100006.03;4999588;28;20493;-85
2022/11/16 12:06:52;;;;;;;8.60;2.38;;;;;;;10.25;100.00;100000.94;5007992;28;20181;-85
2022/11/16 12:09:23;;;;;;;12.25;2.67;;;;;;;10.25;100.00;99990.59;5004028;28;20385;-85
2022/11/16 12:11:48;;;;;;;9.80;2.40;;;;;;;10.29;100.00;99997.34;5008609;28;20563;-86